createdAt,value
2018-07-28T00:00:14.185Z,998.22
2018-07-28T00:01:14.195Z,998.23
2018-07-28T00:02:14.200Z,998.18
2018-07-28T00:03:14.208Z,998.20
2018-07-28T00:04:14.216Z,998.18
2018-07-28T00:05:14.228Z,998.17
2018-07-28T00:06:14.232Z,998.20
2018-07-28T00:07:14.241Z,998.26
2018-07-28T00:08:14.248Z,998.22
2018-07-28T00:09:14.256Z,998.23
2018-07-28T00:10:14.266Z,998.22
2018-07-28T00:11:14.272Z,998.22
2018-07-28T00:12:14.280Z,998.21
2018-07-28T00:13:14.287Z,998.16
2018-07-28T00:14:14.297Z,998.16
2018-07-28T00:15:14.302Z,998.14
2018-07-28T00:16:14.311Z,998.14
2018-07-28T00:17:14.320Z,998.13
2018-07-28T00:18:14.328Z,998.15
2018-07-28T00:19:14.337Z,998.15
2018-07-28T00:20:14.345Z,998.11
2018-07-28T00:21:14.352Z,998.13
2018-07-28T00:22:14.359Z,998.13
2018-07-28T00:23:14.367Z,998.10
2018-07-28T00:24:14.374Z,998.10
2018-07-28T00:25:14.383Z,998.05
2018-07-28T00:26:14.391Z,998.06
2018-07-28T00:27:14.398Z,998.03
2018-07-28T00:28:14.405Z,998.07
2018-07-28T00:29:14.414Z,998.06
2018-07-28T00:30:14.423Z,998.05
2018-07-28T00:31:14.433Z,998.05
2018-07-28T00:32:14.437Z,998.06
2018-07-28T00:33:14.444Z,998.05
2018-07-28T00:34:14.455Z,998.03
2018-07-28T00:35:14.462Z,998.06
2018-07-28T00:36:14.469Z,998.05
2018-07-28T00:37:14.477Z,998.02
2018-07-28T00:38:14.484Z,998.03
2018-07-28T00:39:14.493Z,998.02
2018-07-28T00:40:14.500Z,997.99
2018-07-28T00:41:14.513Z,997.97
2018-07-28T00:42:14.515Z,997.95
2018-07-28T00:43:14.523Z,997.94
2018-07-28T00:44:14.531Z,997.90
2018-07-28T00:45:14.537Z,997.90
2018-07-28T00:46:14.547Z,997.88
2018-07-28T00:47:14.556Z,997.86
2018-07-28T00:48:14.561Z,997.83
2018-07-28T00:49:14.570Z,997.85
2018-07-28T00:50:14.577Z,997.80
2018-07-28T00:51:14.585Z,997.79
2018-07-28T00:52:14.593Z,997.78
2018-07-28T00:53:14.600Z,997.80
2018-07-28T00:54:14.641Z,997.76
2018-07-28T00:55:14.617Z,997.75
2018-07-28T00:56:14.623Z,997.72
2018-07-28T00:57:14.631Z,997.71
2018-07-28T00:58:14.640Z,997.73
2018-07-28T00:59:14.649Z,997.72
2018-07-28T01:00:14.654Z,997.73
2018-07-28T01:01:14.661Z,997.67
2018-07-28T01:02:14.669Z,997.67
2018-07-28T01:03:14.677Z,997.67
2018-07-28T01:04:14.683Z,997.64
2018-07-28T01:05:14.692Z,997.66
2018-07-28T01:06:14.699Z,997.60
2018-07-28T01:07:14.706Z,997.56
2018-07-28T01:08:14.716Z,997.58
2018-07-28T01:09:14.723Z,997.55
2018-07-28T01:10:14.733Z,997.52
2018-07-28T01:11:14.737Z,997.54
2018-07-28T01:12:14.743Z,997.51
2018-07-28T01:13:14.752Z,997.51
2018-07-28T01:14:14.760Z,997.51
2018-07-28T01:15:14.767Z,997.48
2018-07-28T01:16:14.774Z,997.50
2018-07-28T01:17:14.781Z,997.50
2018-07-28T01:18:14.789Z,997.55
2018-07-28T01:19:14.798Z,997.52
2018-07-28T01:20:14.804Z,997.54
2018-07-28T01:21:14.814Z,997.52
2018-07-28T01:22:14.818Z,997.50
2018-07-28T01:23:14.827Z,997.52
2018-07-28T01:24:14.834Z,997.49
2018-07-28T01:25:14.842Z,997.52
2018-07-28T01:26:14.850Z,997.45
2018-07-28T01:27:14.857Z,997.47
2018-07-28T01:28:14.866Z,997.45
2018-07-28T01:29:14.872Z,997.43
2018-07-28T01:30:14.880Z,997.45
2018-07-28T01:31:14.887Z,997.42
2018-07-28T01:32:14.892Z,997.42
2018-07-28T01:33:14.901Z,997.43
2018-07-28T01:34:14.910Z,997.41
2018-07-28T01:35:14.916Z,997.39
2018-07-28T01:36:14.923Z,997.35
2018-07-28T01:37:14.932Z,997.33
2018-07-28T01:38:14.938Z,997.32
2018-07-28T01:39:14.945Z,997.27
2018-07-28T01:40:14.953Z,997.24
2018-07-28T01:41:14.960Z,997.24
2018-07-28T01:42:14.967Z,997.23
2018-07-28T01:43:14.975Z,997.19
2018-07-28T01:44:14.984Z,997.22
2018-07-28T01:45:14.989Z,997.15
2018-07-28T01:46:14.996Z,997.19
2018-07-28T01:47:15.004Z,997.17
2018-07-28T01:48:15.011Z,997.13
2018-07-28T01:49:15.023Z,997.11
2018-07-28T01:50:15.027Z,997.13
2018-07-28T01:51:15.034Z,997.08
2018-07-28T01:52:15.041Z,997.14
2018-07-28T01:53:15.050Z,997.15
2018-07-28T01:54:15.056Z,997.15
2018-07-28T01:55:15.064Z,997.11
2018-07-28T01:56:15.069Z,997.09
2018-07-28T01:57:15.076Z,997.10
2018-07-28T01:58:15.085Z,997.05
2018-07-28T01:59:15.090Z,997.06
2018-07-28T02:00:15.097Z,997.06
2018-07-28T02:01:15.105Z,997.02
2018-07-28T02:02:15.113Z,996.96
2018-07-28T02:03:15.125Z,996.97
2018-07-28T02:04:15.125Z,996.94
2018-07-28T02:05:15.133Z,996.97
2018-07-28T02:06:15.141Z,996.95
2018-07-28T02:07:15.147Z,996.92
2018-07-28T02:08:15.154Z,996.95
2018-07-28T02:09:15.160Z,996.91
2018-07-28T02:10:15.168Z,996.89
2018-07-28T02:11:15.174Z,996.88
2018-07-28T02:12:15.182Z,996.85
2018-07-28T02:13:15.190Z,996.84
2018-07-28T02:14:15.197Z,996.78
2018-07-28T02:15:15.206Z,996.79
2018-07-28T02:16:15.213Z,996.80
2018-07-28T02:17:15.218Z,996.75
2018-07-28T02:18:15.225Z,996.76
2018-07-28T02:19:15.236Z,996.78
2018-07-28T02:20:15.240Z,996.79
2018-07-28T02:21:15.245Z,996.80
2018-07-28T02:22:15.252Z,996.76
2018-07-28T02:23:15.259Z,996.78
2018-07-28T02:24:15.266Z,996.70
2018-07-28T02:25:15.274Z,996.74
2018-07-28T02:26:15.279Z,996.70
2018-07-28T02:27:15.289Z,996.64
2018-07-28T02:28:15.294Z,996.64
2018-07-28T02:29:15.301Z,996.61
2018-07-28T02:30:15.308Z,996.60
2018-07-28T02:31:15.316Z,996.60
2018-07-28T02:32:15.322Z,996.66
2018-07-28T02:33:15.330Z,996.71
2018-07-28T02:34:15.337Z,996.71
2018-07-28T02:35:15.344Z,996.64
2018-07-28T02:36:15.357Z,996.57
2018-07-28T02:37:15.362Z,996.52
2018-07-28T02:38:15.365Z,996.48
2018-07-28T02:39:15.371Z,996.46
2018-07-28T02:40:15.377Z,996.44
2018-07-28T02:41:15.384Z,996.46
2018-07-28T02:42:15.392Z,996.47
2018-07-28T02:43:15.399Z,996.54
2018-07-28T02:44:15.405Z,996.63
2018-07-28T02:45:15.412Z,996.59
2018-07-28T02:46:15.418Z,996.58
2018-07-28T02:47:15.425Z,996.50
2018-07-28T02:48:15.433Z,996.54
2018-07-28T02:49:15.440Z,996.55
2018-07-28T02:50:15.448Z,996.58
2018-07-28T02:51:15.456Z,996.50
2018-07-28T02:52:15.459Z,996.47
2018-07-28T02:53:15.466Z,996.41
2018-07-28T02:54:15.474Z,996.43
2018-07-28T02:55:15.480Z,996.48
2018-07-28T02:56:15.486Z,996.50
2018-07-28T02:57:15.493Z,996.47
2018-07-28T02:58:15.500Z,996.39
2018-07-28T02:59:15.507Z,996.36
2018-07-28T03:00:15.534Z,996.33
2018-07-28T03:01:15.521Z,996.42
2018-07-28T03:02:15.527Z,996.44
2018-07-28T03:03:15.534Z,996.40
2018-07-28T03:04:15.541Z,996.42
2018-07-28T03:05:15.548Z,996.38
2018-07-28T03:06:15.555Z,996.35
2018-07-28T03:07:15.561Z,996.31
2018-07-28T03:08:15.567Z,996.28
2018-07-28T03:09:15.574Z,996.29
2018-07-28T03:10:15.580Z,996.26
2018-07-28T03:11:15.588Z,996.31
2018-07-28T03:12:15.593Z,996.35
2018-07-28T03:13:15.601Z,996.35
2018-07-28T03:14:15.605Z,996.32
2018-07-28T03:15:15.613Z,996.35
2018-07-28T03:16:15.620Z,996.34
2018-07-28T03:17:15.627Z,996.29
2018-07-28T03:18:15.633Z,996.28
2018-07-28T03:19:15.645Z,996.28
2018-07-28T03:20:15.646Z,996.25
2018-07-28T03:21:15.655Z,996.26
2018-07-28T03:22:15.659Z,996.29
2018-07-28T03:23:15.668Z,996.26
2018-07-28T03:24:15.675Z,996.24
2018-07-28T03:25:15.678Z,996.18
2018-07-28T03:26:15.686Z,996.19
2018-07-28T03:27:15.692Z,996.15
2018-07-28T03:28:15.697Z,996.16
2018-07-28T03:29:15.704Z,996.14
2018-07-28T03:30:15.710Z,996.15
2018-07-28T03:31:15.719Z,996.16
2018-07-28T03:32:15.722Z,996.12
2018-07-28T03:33:15.729Z,996.08
2018-07-28T03:34:15.738Z,996.04
2018-07-28T03:35:15.744Z,995.99
2018-07-28T03:36:15.748Z,995.98
2018-07-28T03:37:15.755Z,995.99
2018-07-28T03:38:15.762Z,995.98
2018-07-28T03:39:15.770Z,995.92
2018-07-28T03:40:15.774Z,995.88
2018-07-28T03:41:15.782Z,995.85
2018-07-28T03:42:15.788Z,995.82
2018-07-28T03:43:15.794Z,995.78
2018-07-28T03:44:15.800Z,995.77
2018-07-28T03:45:15.806Z,995.78
2018-07-28T03:46:15.814Z,995.77
2018-07-28T03:47:15.820Z,995.76
2018-07-28T03:48:15.825Z,995.74
2018-07-28T03:49:15.888Z,995.79
2018-07-28T03:50:15.839Z,995.78
2018-07-28T03:51:15.846Z,995.81
2018-07-28T03:52:15.851Z,995.82
2018-07-28T03:53:15.857Z,995.84
2018-07-28T03:54:15.863Z,995.85
2018-07-28T03:55:15.877Z,995.95
2018-07-28T03:56:15.875Z,996.04
2018-07-28T03:57:15.881Z,996.14
2018-07-28T03:58:15.888Z,996.23
2018-07-28T03:59:15.895Z,996.21
2018-07-28T04:00:15.903Z,996.35
2018-07-28T04:01:15.907Z,996.38
2018-07-28T04:02:15.914Z,996.46
2018-07-28T04:03:15.920Z,996.31
2018-07-28T04:04:15.954Z,996.21
2018-07-28T04:05:15.933Z,996.15
2018-07-28T04:06:15.947Z,996.07
2018-07-28T04:07:15.944Z,995.99
2018-07-28T04:08:15.957Z,996.12
2018-07-28T04:09:15.962Z,996.35
2018-07-28T04:10:16.010Z,996.69
2018-07-28T04:11:15.968Z,996.89
2018-07-28T04:12:15.975Z,996.74
2018-07-28T04:13:15.980Z,996.56
2018-07-28T04:14:16.038Z,996.28
2018-07-28T04:15:15.993Z,996.33
2018-07-28T04:16:16.000Z,996.68
2018-07-28T04:17:16.006Z,996.80
2018-07-28T04:18:16.014Z,996.59
2018-07-28T04:19:16.017Z,996.12
2018-07-28T04:20:16.025Z,995.89
2018-07-28T04:21:16.029Z,995.98
2018-07-28T04:22:16.035Z,996.42
2018-07-28T04:23:16.041Z,996.70
2018-07-28T04:24:16.046Z,996.71
2018-07-28T04:25:16.053Z,996.71
2018-07-28T04:26:16.062Z,996.40
2018-07-28T04:27:16.065Z,996.01
2018-07-28T04:28:16.072Z,995.96
2018-07-28T04:29:16.078Z,995.98
2018-07-28T04:30:16.082Z,995.99
2018-07-28T04:31:16.088Z,996.18
2018-07-28T04:32:16.093Z,996.53
2018-07-28T04:33:16.099Z,996.70
2018-07-28T04:34:16.105Z,996.70
2018-07-28T04:35:16.112Z,996.44
2018-07-28T04:36:16.118Z,996.20
2018-07-28T04:37:16.122Z,996.11
2018-07-28T04:38:16.128Z,996.26
2018-07-28T04:39:16.135Z,996.36
2018-07-28T04:40:16.140Z,996.42
2018-07-28T04:41:16.146Z,996.39
2018-07-28T04:42:16.153Z,996.39
2018-07-28T04:43:16.158Z,996.35
2018-07-28T04:44:16.164Z,996.40
2018-07-28T04:45:16.169Z,996.46
2018-07-28T04:46:16.175Z,996.50
2018-07-28T04:47:16.182Z,996.50
2018-07-28T04:48:16.188Z,996.37
2018-07-28T04:49:16.193Z,996.32
2018-07-28T04:50:16.198Z,996.20
2018-07-28T04:51:16.206Z,996.10
2018-07-28T04:52:16.211Z,996.04
2018-07-28T04:53:16.216Z,996.14
2018-07-28T04:54:16.223Z,996.21
2018-07-28T04:55:16.228Z,996.28
2018-07-28T04:56:16.234Z,996.32
2018-07-28T04:57:16.239Z,996.24
2018-07-28T04:58:16.246Z,996.16
2018-07-28T04:59:16.253Z,996.16
2018-07-28T05:00:16.258Z,996.15
2018-07-28T05:01:16.268Z,996.10
2018-07-28T05:02:16.270Z,996.09
2018-07-28T05:03:16.276Z,996.12
2018-07-28T05:04:16.281Z,996.18
2018-07-28T05:05:16.291Z,996.22
2018-07-28T05:06:16.293Z,996.25
2018-07-28T05:07:16.356Z,996.18
2018-07-28T05:08:16.305Z,996.12
2018-07-28T05:09:16.311Z,996.11
2018-07-28T05:10:16.319Z,996.07
2018-07-28T05:11:16.324Z,996.03
2018-07-28T05:12:16.329Z,995.99
2018-07-28T05:13:16.336Z,996.02
2018-07-28T05:14:16.343Z,996.05
2018-07-28T05:15:16.350Z,996.14
2018-07-28T05:16:16.353Z,996.23
2018-07-28T05:17:16.361Z,996.26
2018-07-28T05:18:16.367Z,996.32
2018-07-28T05:19:16.372Z,996.35
2018-07-28T05:20:16.378Z,996.36
2018-07-28T05:21:16.387Z,996.29
2018-07-28T05:22:16.392Z,996.14
2018-07-28T05:23:16.397Z,996.06
2018-07-28T05:24:16.403Z,995.99
2018-07-28T05:25:16.408Z,995.96
2018-07-28T05:26:16.415Z,995.96
2018-07-28T05:27:16.423Z,995.98
2018-07-28T05:28:16.426Z,996.04
2018-07-28T05:29:16.432Z,996.06
2018-07-28T05:30:16.440Z,996.17
2018-07-28T05:31:16.446Z,996.25
2018-07-28T05:32:16.454Z,996.25
2018-07-28T05:33:16.459Z,996.22
2018-07-28T05:34:16.465Z,996.13
2018-07-28T05:35:16.472Z,996.04
2018-07-28T05:36:16.477Z,995.97
2018-07-28T05:37:16.495Z,995.97
2018-07-28T05:38:16.491Z,995.95
2018-07-28T05:39:16.497Z,995.96
2018-07-28T05:40:16.505Z,995.99
2018-07-28T05:41:16.519Z,996.02
2018-07-28T05:42:16.518Z,995.99
2018-07-28T05:43:16.523Z,995.96
2018-07-28T05:44:16.529Z,995.94
2018-07-28T05:45:16.535Z,995.99
2018-07-28T05:46:16.540Z,995.97
2018-07-28T05:47:16.548Z,995.99
2018-07-28T05:48:16.554Z,995.95
2018-07-28T05:49:16.561Z,995.98
2018-07-28T05:50:16.567Z,995.90
2018-07-28T05:51:16.574Z,995.90
2018-07-28T05:52:16.580Z,995.88
2018-07-28T05:53:16.586Z,995.78
2018-07-28T05:54:16.593Z,995.78
2018-07-28T05:55:16.605Z,995.78
2018-07-28T05:56:16.606Z,995.80
2018-07-28T05:57:16.613Z,995.78
2018-07-28T05:58:16.621Z,995.86
2018-07-28T05:59:16.630Z,995.84
2018-07-28T06:00:16.636Z,995.86
2018-07-28T06:01:16.639Z,995.86
2018-07-28T06:02:16.660Z,995.80
2018-07-28T06:03:16.653Z,995.80
2018-07-28T06:04:16.659Z,995.74
2018-07-28T06:05:16.667Z,995.75
2018-07-28T06:06:16.676Z,995.73
2018-07-28T06:07:16.682Z,995.73
2018-07-28T06:08:16.686Z,995.71
2018-07-28T06:09:16.694Z,995.77
2018-07-28T06:10:16.703Z,995.76
2018-07-28T06:11:16.707Z,995.79
2018-07-28T06:12:16.714Z,995.76
2018-07-28T06:13:16.720Z,995.79
2018-07-28T06:14:16.780Z,995.78
2018-07-28T06:15:16.734Z,995.80
2018-07-28T06:16:16.740Z,995.79
2018-07-28T06:17:16.748Z,995.78
2018-07-28T06:18:16.758Z,995.74
2018-07-28T06:19:16.762Z,995.80
2018-07-28T06:20:16.801Z,995.79
2018-07-28T06:21:16.778Z,995.75
2018-07-28T06:22:16.783Z,995.72
2018-07-28T06:23:16.789Z,995.70
2018-07-28T06:24:16.796Z,995.69
2018-07-28T06:25:16.804Z,995.64
2018-07-28T06:26:16.814Z,995.60
2018-07-28T06:27:16.818Z,995.62
2018-07-28T06:28:16.827Z,995.66
2018-07-28T06:29:16.830Z,995.72
2018-07-28T06:30:16.840Z,995.77
2018-07-28T06:31:16.855Z,995.79
2018-07-28T06:32:16.854Z,995.77
2018-07-28T06:33:16.860Z,995.76
2018-07-28T06:34:16.869Z,995.75
2018-07-28T06:35:16.876Z,995.73
2018-07-28T06:36:16.882Z,995.69
2018-07-28T06:37:16.890Z,995.73
2018-07-28T06:38:16.897Z,995.70
2018-07-28T06:39:16.905Z,995.72
2018-07-28T06:40:16.912Z,995.72
2018-07-28T06:41:16.923Z,995.72
2018-07-28T06:42:16.926Z,995.78
2018-07-28T06:43:16.933Z,995.80
2018-07-28T06:44:16.940Z,995.86
2018-07-28T06:45:16.948Z,995.89
2018-07-28T06:46:16.954Z,995.91
2018-07-28T06:47:16.992Z,995.93
2018-07-28T06:48:16.969Z,995.98
2018-07-28T06:49:16.976Z,996.09
2018-07-28T06:50:16.986Z,996.14
2018-07-28T06:51:16.992Z,996.10
2018-07-28T06:52:17.000Z,996.08
2018-07-28T06:53:17.006Z,996.07
2018-07-28T06:54:17.014Z,996.04
2018-07-28T06:55:17.023Z,996.05
2018-07-28T06:56:17.031Z,996.06
2018-07-28T06:57:17.037Z,996.08
2018-07-28T06:58:17.044Z,996.07
2018-07-28T06:59:17.052Z,996.08
2018-07-28T07:00:17.060Z,996.10
2018-07-28T07:01:17.067Z,996.14
2018-07-28T07:02:17.074Z,996.22
2018-07-28T07:03:17.081Z,996.44
2018-07-28T07:04:17.095Z,996.85
2018-07-28T07:05:17.097Z,997.16
2018-07-28T07:06:17.104Z,997.32
2018-07-28T07:07:17.112Z,997.24
2018-07-28T07:08:17.119Z,997.01
2018-07-28T07:09:17.127Z,996.91
2018-07-28T07:10:17.139Z,996.96
2018-07-28T07:11:17.145Z,997.26
2018-07-28T07:12:17.150Z,997.45
2018-07-28T07:13:17.158Z,997.46
2018-07-28T07:14:17.168Z,997.25
2018-07-28T07:15:17.175Z,997.09
2018-07-28T07:16:17.181Z,997.07
2018-07-28T07:17:17.189Z,997.32
2018-07-28T07:18:17.198Z,997.55
2018-07-28T07:19:17.205Z,997.59
2018-07-28T07:20:17.213Z,997.53
2018-07-28T07:21:17.220Z,997.32
2018-07-28T07:22:17.228Z,997.19
2018-07-28T07:23:17.237Z,997.32
2018-07-28T07:24:17.245Z,997.56
2018-07-28T07:25:17.252Z,997.67
2018-07-28T07:26:17.262Z,997.67
2018-07-28T07:27:17.270Z,997.67
2018-07-28T07:28:17.277Z,997.66
2018-07-28T07:29:17.289Z,997.54
2018-07-28T07:30:17.300Z,997.47
2018-07-28T07:31:17.303Z,997.42
2018-07-28T07:32:17.310Z,997.35
2018-07-28T07:33:17.318Z,997.48
2018-07-28T07:34:17.328Z,997.59
2018-07-28T07:35:17.336Z,997.69
2018-07-28T07:36:17.388Z,997.69
2018-07-28T07:37:17.354Z,997.62
2018-07-28T07:38:17.361Z,997.57
2018-07-28T07:39:17.372Z,997.50
2018-07-28T07:40:17.379Z,997.51
2018-07-28T07:41:17.389Z,997.48
2018-07-28T07:42:17.396Z,997.45
2018-07-28T07:43:17.405Z,997.48
2018-07-28T07:44:17.413Z,997.42
2018-07-28T07:45:17.423Z,997.47
2018-07-28T07:46:17.433Z,997.43
2018-07-28T07:47:17.477Z,997.39
2018-07-28T07:48:17.448Z,997.42
2018-07-28T07:49:17.459Z,997.37
2018-07-28T07:50:17.469Z,997.35
2018-07-28T07:51:17.476Z,997.45
2018-07-28T07:52:17.484Z,997.39
2018-07-28T07:53:17.494Z,997.39
2018-07-28T07:54:17.504Z,997.29
2018-07-28T07:55:17.513Z,997.23
2018-07-28T07:56:17.541Z,997.19
2018-07-28T07:57:17.529Z,997.11
2018-07-28T07:58:17.539Z,997.18
2018-07-28T07:59:17.549Z,997.19
2018-07-28T08:00:17.559Z,997.16
2018-07-28T08:01:17.565Z,997.09
2018-07-28T08:02:17.574Z,997.12
2018-07-28T08:03:17.584Z,997.13
2018-07-28T08:04:17.591Z,997.15
2018-07-28T08:05:17.609Z,997.14
2018-07-28T08:06:17.616Z,997.18
2018-07-28T08:07:17.619Z,997.20
2018-07-28T08:08:17.629Z,997.22
2018-07-28T08:09:17.638Z,997.21
2018-07-28T08:10:17.646Z,997.24
2018-07-28T08:11:17.655Z,997.25
2018-07-28T08:12:17.663Z,997.23
2018-07-28T08:13:17.673Z,997.26
2018-07-28T08:14:17.681Z,997.23
2018-07-28T08:15:17.690Z,997.26
2018-07-28T08:16:17.699Z,997.21
2018-07-28T08:17:17.707Z,997.22
2018-07-28T08:18:17.715Z,997.16
2018-07-28T08:19:17.726Z,997.15
2018-07-28T08:20:17.735Z,997.16
2018-07-28T08:21:17.742Z,997.19
2018-07-28T08:22:17.750Z,997.22
2018-07-28T08:23:17.761Z,997.15
2018-07-28T08:24:17.767Z,997.15
2018-07-28T08:25:17.775Z,997.10
2018-07-28T08:26:17.784Z,997.03
2018-07-28T08:27:17.792Z,996.99
2018-07-28T08:28:17.800Z,996.93
2018-07-28T08:29:17.811Z,996.90
2018-07-28T08:30:17.818Z,996.89
2018-07-28T08:31:17.827Z,996.85
2018-07-28T08:32:17.834Z,996.92
2018-07-28T08:33:17.896Z,996.93
2018-07-28T08:34:17.852Z,996.99
2018-07-28T08:35:17.859Z,997.00
2018-07-28T08:36:17.868Z,996.96
2018-07-28T08:37:17.880Z,996.91
2018-07-28T08:38:17.885Z,996.91
2018-07-28T08:39:17.892Z,996.92
2018-07-28T08:40:17.900Z,996.96
2018-07-28T08:41:17.908Z,996.99
2018-07-28T08:42:17.916Z,996.99
2018-07-28T08:43:17.925Z,996.99
2018-07-28T08:44:17.933Z,996.97
2018-07-28T08:45:17.940Z,996.98
2018-07-28T08:46:17.950Z,997.05
2018-07-28T08:47:17.957Z,997.13
2018-07-28T08:48:17.966Z,997.18
2018-07-28T08:49:18.058Z,997.23
2018-07-28T08:50:17.982Z,997.25
2018-07-28T08:51:17.988Z,997.26
2018-07-28T08:52:17.996Z,997.24
2018-07-28T08:53:18.006Z,997.26
2018-07-28T08:54:18.014Z,997.28
2018-07-28T08:55:18.022Z,997.29
2018-07-28T08:56:18.031Z,997.32
2018-07-28T08:57:18.040Z,997.35
2018-07-28T08:58:18.046Z,997.37
2018-07-28T08:59:18.055Z,997.36
2018-07-28T09:00:18.062Z,997.38
2018-07-28T09:01:18.071Z,997.41
2018-07-28T09:02:18.080Z,997.37
2018-07-28T09:03:18.088Z,997.37
2018-07-28T09:04:18.096Z,997.39
2018-07-28T09:05:18.105Z,997.41
2018-07-28T09:06:18.113Z,997.43
2018-07-28T09:07:18.123Z,997.42
2018-07-28T09:08:18.130Z,997.40
2018-07-28T09:09:18.138Z,997.43
2018-07-28T09:10:18.148Z,997.42
2018-07-28T09:11:18.156Z,997.40
2018-07-28T09:12:18.223Z,997.42
2018-07-28T09:13:18.174Z,997.37
2018-07-28T09:14:18.185Z,997.45
2018-07-28T09:15:18.191Z,997.43
2018-07-28T09:16:18.230Z,997.44
2018-07-28T09:17:18.208Z,997.41
2018-07-28T09:18:18.216Z,997.38
2018-07-28T09:19:18.223Z,997.33
2018-07-28T09:20:18.234Z,997.29
2018-07-28T09:21:18.242Z,997.29
2018-07-28T09:22:18.250Z,997.24
2018-07-28T09:23:18.306Z,997.32
2018-07-28T09:24:18.268Z,997.27
2018-07-28T09:25:18.275Z,997.34
2018-07-28T09:26:18.284Z,997.38
2018-07-28T09:27:18.293Z,997.38
2018-07-28T09:28:18.301Z,997.42
2018-07-28T09:29:18.310Z,997.50
2018-07-28T09:30:18.319Z,997.56
2018-07-28T09:31:18.328Z,997.63
2018-07-28T09:32:18.340Z,997.66
2018-07-28T09:33:18.345Z,997.72
2018-07-28T09:34:18.353Z,997.71
2018-07-28T09:35:18.361Z,997.74
2018-07-28T09:36:18.370Z,997.79
2018-07-28T09:37:18.379Z,997.83
2018-07-28T09:38:18.388Z,997.91
2018-07-28T09:39:18.397Z,997.93
2018-07-28T09:40:18.404Z,997.97
2018-07-28T09:41:18.412Z,997.95
2018-07-28T09:42:18.423Z,998.01
2018-07-28T09:43:18.432Z,998.01
2018-07-28T09:44:18.440Z,998.00
2018-07-28T09:45:18.449Z,998.02
2018-07-28T09:46:18.500Z,998.08
2018-07-28T09:47:18.466Z,998.11
2018-07-28T09:48:18.473Z,998.13
2018-07-28T09:49:18.482Z,998.15
2018-07-28T09:50:18.491Z,998.21
2018-07-28T09:51:18.502Z,998.25
2018-07-28T09:52:18.509Z,998.30
2018-07-28T09:53:18.518Z,998.29
2018-07-28T09:54:18.527Z,998.33
2018-07-28T09:55:18.535Z,998.33
2018-07-28T09:56:18.587Z,998.31
2018-07-28T09:57:18.552Z,998.39
2018-07-28T09:58:18.560Z,998.43
2018-07-28T09:59:18.569Z,998.43
2018-07-28T10:00:18.580Z,998.47
2018-07-28T10:01:18.589Z,998.48
2018-07-28T10:02:18.595Z,998.47
2018-07-28T10:03:18.604Z,998.43
2018-07-28T10:04:18.614Z,998.44
2018-07-28T10:05:18.620Z,998.42
2018-07-28T10:06:18.630Z,998.44
2018-07-28T10:07:18.638Z,998.44
2018-07-28T10:08:18.646Z,998.37
2018-07-28T10:09:18.654Z,998.46
2018-07-28T10:10:18.665Z,998.44
2018-07-28T10:11:18.674Z,998.41
2018-07-28T10:12:18.680Z,998.40
2018-07-28T10:13:18.689Z,998.40
2018-07-28T10:14:18.699Z,998.36
2018-07-28T10:15:18.707Z,998.35
2018-07-28T10:16:18.799Z,998.35
2018-07-28T10:17:18.723Z,998.36
2018-07-28T10:18:18.731Z,998.38
2018-07-28T10:19:18.740Z,998.40
2018-07-28T10:20:18.748Z,998.43
2018-07-28T10:21:18.757Z,998.41
2018-07-28T10:22:18.766Z,998.42
2018-07-28T10:23:18.774Z,998.44
2018-07-28T10:24:18.782Z,998.41
2018-07-28T10:25:18.789Z,998.43
2018-07-28T10:26:18.797Z,998.38
2018-07-28T10:27:18.805Z,998.28
2018-07-28T10:28:18.813Z,998.18
2018-07-28T10:29:18.821Z,998.12
2018-07-28T10:30:18.904Z,998.10
2018-07-28T10:31:18.837Z,998.11
2018-07-28T10:32:18.845Z,998.27
2018-07-28T10:33:18.853Z,998.32
2018-07-28T10:34:18.862Z,998.38
2018-07-28T10:35:18.870Z,998.45
2018-07-28T10:36:18.912Z,998.48
2018-07-28T10:37:18.885Z,998.51
2018-07-28T10:38:18.893Z,998.50
2018-07-28T10:39:18.901Z,998.47
2018-07-28T10:40:18.908Z,998.48
2018-07-28T10:41:18.915Z,998.48
2018-07-28T10:42:18.925Z,998.47
2018-07-28T10:43:18.932Z,998.48
2018-07-28T10:44:18.939Z,998.50
2018-07-28T10:45:18.947Z,998.47
2018-07-28T10:46:18.956Z,998.56
2018-07-28T10:47:18.966Z,998.58
2018-07-28T10:48:18.971Z,998.64
2018-07-28T10:49:18.980Z,998.68
2018-07-28T10:50:18.989Z,998.71
2018-07-28T10:51:18.996Z,998.77
2018-07-28T10:52:19.004Z,998.70
2018-07-28T10:53:19.012Z,998.72
2018-07-28T10:54:19.022Z,998.68
2018-07-28T10:55:19.029Z,998.68
2018-07-28T10:56:19.038Z,998.67
2018-07-28T10:57:19.046Z,998.64
2018-07-28T10:58:19.055Z,998.63
2018-07-28T10:59:19.066Z,998.63
2018-07-28T11:00:19.131Z,998.58
2018-07-28T11:01:19.081Z,998.64
2018-07-28T11:02:19.091Z,998.65
2018-07-28T11:03:19.099Z,998.63
2018-07-28T11:04:19.106Z,998.65
2018-07-28T11:05:19.115Z,998.56
2018-07-28T11:06:19.126Z,998.57
2018-07-28T11:07:19.133Z,998.53
2018-07-28T11:08:19.142Z,998.56
2018-07-28T11:09:19.150Z,998.51
2018-07-28T11:10:19.160Z,998.52
2018-07-28T11:11:19.170Z,998.51
2018-07-28T11:12:19.178Z,998.51
2018-07-28T11:13:19.188Z,998.59
2018-07-28T11:14:19.195Z,998.46
2018-07-28T11:15:19.204Z,998.55
2018-07-28T11:16:19.213Z,998.45
2018-07-28T11:17:19.225Z,998.43
2018-07-28T11:18:19.232Z,998.44
2018-07-28T11:19:19.241Z,998.51
2018-07-28T11:20:19.251Z,998.50
2018-07-28T11:21:19.259Z,998.55
2018-07-28T11:22:19.270Z,998.56
2018-07-28T11:23:19.280Z,998.56
2018-07-28T11:24:19.288Z,998.60
2018-07-28T11:25:19.298Z,998.59
2018-07-28T11:26:19.340Z,998.67
2018-07-28T11:27:19.316Z,998.65
2018-07-28T11:28:19.325Z,998.71
2018-07-28T11:29:19.336Z,998.70
2018-07-28T11:30:19.346Z,998.66
2018-07-28T11:31:19.356Z,998.60
2018-07-28T11:32:19.366Z,998.62
2018-07-28T11:33:19.423Z,998.61
2018-07-28T11:34:19.384Z,998.57
2018-07-28T11:35:19.397Z,998.60
2018-07-28T11:36:19.402Z,998.61
2018-07-28T11:37:19.412Z,998.65
2018-07-28T11:38:19.423Z,998.72
2018-07-28T11:39:19.432Z,998.80
2018-07-28T11:40:19.441Z,998.73
2018-07-28T11:41:19.451Z,998.71
2018-07-28T11:42:19.460Z,998.75
2018-07-28T11:43:19.472Z,998.73
2018-07-28T11:44:19.481Z,998.72
2018-07-28T11:45:19.491Z,998.74
2018-07-28T11:46:19.501Z,998.70
2018-07-28T11:47:19.515Z,998.70
2018-07-28T11:48:19.522Z,998.72
2018-07-28T11:49:19.530Z,998.67
2018-07-28T11:50:19.540Z,998.72
2018-07-28T11:51:19.565Z,998.68
2018-07-28T11:52:19.562Z,998.66
2018-07-28T11:53:19.576Z,998.70
2018-07-28T11:54:19.581Z,998.68
2018-07-28T11:55:19.596Z,998.72
2018-07-28T11:56:19.602Z,998.65
2018-07-28T11:57:19.611Z,998.65
2018-07-28T11:58:19.657Z,998.69
2018-07-28T11:59:19.634Z,998.66
2018-07-28T12:00:19.641Z,998.65
2018-07-28T12:01:19.652Z,998.68
2018-07-28T12:02:19.661Z,998.66
2018-07-28T12:03:19.671Z,998.62
2018-07-28T12:04:19.681Z,998.64
2018-07-28T12:05:19.691Z,998.62
2018-07-28T12:06:19.702Z,998.61
2018-07-28T12:07:19.710Z,998.60
2018-07-28T12:08:19.725Z,998.59
2018-07-28T12:09:19.730Z,998.56
2018-07-28T12:10:19.741Z,998.60
2018-07-28T12:11:19.750Z,998.59
2018-07-28T12:12:19.759Z,998.53
2018-07-28T12:13:19.770Z,998.50
2018-07-28T12:14:19.780Z,998.52
2018-07-28T12:15:19.791Z,998.42
2018-07-28T12:16:19.799Z,998.40
2018-07-28T12:17:19.811Z,998.34
2018-07-28T12:18:19.866Z,998.34
2018-07-28T12:19:19.832Z,998.30
2018-07-28T12:20:19.842Z,998.29
2018-07-28T12:21:19.851Z,998.26
2018-07-28T12:22:19.890Z,998.26
2018-07-28T12:23:19.873Z,998.27
2018-07-28T12:24:19.882Z,998.26
2018-07-28T12:25:19.892Z,998.26
2018-07-28T12:26:19.904Z,998.34
2018-07-28T12:27:19.913Z,998.38
2018-07-28T12:28:19.923Z,998.39